Time;durP1;ratioP1;P1;durP2;ratioP2;P2;SDS_P1;SDS_P2;PMS_P1;PMS_P2;Temp;Humidity;BMP_temperature;BMP_pressure;BME280_temperature;BME280_humidity;BME280_pressure;Samples;Min_cycle;Max_cycle;Signal;HPM_P1;HPM_P2
2021/12/23 00:00:24;;;;;;;17.40;10.80;;;1.20;99.90;;;;;;4990473;28;20189;-86
2021/12/23 00:02:50;;;;;;;12.30;10.57;;;1.00;99.90;;;;;;4992163;28;20621;-86
2021/12/23 00:05:15;;;;;;;16.67;11.30;;;1.10;99.90;;;;;;4994874;28;20252;-87
2021/12/23 00:07:41;;;;;;;14.40;12.10;;;1.10;99.90;;;;;;5011686;28;20228;-86
2021/12/23 00:10:10;;;;;;;14.10;11.10;;;1.00;99.90;;;;;;4982572;28;20192;-86
2021/12/23 00:12:40;;;;;;;15.55;11.18;;;1.10;99.90;;;;;;4983168;28;20193;-87
2021/12/23 00:15:16;;;;;;;11.00;9.90;;;1.70;99.90;;;;;;5003126;28;20177;-87
2021/12/23 00:25:35;;;;;;;14.27;10.75;;;0.70;99.90;;;;;;5008744;28;20203;-86
2021/12/23 00:28:00;;;;;;;14.63;9.90;;;1.70;99.90;;;;;;5015090;28;20212;-86
2021/12/23 00:30:27;;;;;;;12.23;9.90;;;2.10;99.90;;;;;;4999857;28;20259;-86
2021/12/23 00:32:55;;;;;;;13.85;11.07;;;1.20;99.90;;;;;;5014735;28;20203;-88
2021/12/23 00:35:22;;;;;;;14.70;10.38;;;1.00;99.90;;;;;;5006093;28;20185;-86
2021/12/23 00:37:50;;;;;;;15.10;11.30;;;1.10;99.90;;;;;;5004464;28;20243;-87
2021/12/23 00:40:17;;;;;;;11.65;9.70;;;1.20;99.90;;;;;;4987347;28;20188;-88
2021/12/23 00:42:42;;;;;;;13.20;9.88;;;1.10;99.90;;;;;;4976883;28;20254;-86
2021/12/23 00:45:08;;;;;;;16.27;12.00;;;1.20;99.90;;;;;;4982296;28;20600;-88
2021/12/23 00:47:34;;;;;;;16.92;10.77;;;1.30;99.90;;;;;;4984724;28;20270;-88
2021/12/23 00:50:00;;;;;;;10.63;8.23;;;0.70;99.90;;;;;;4989873;28;20284;-89
2021/12/23 00:52:31;;;;;;;11.97;9.90;;;1.30;99.90;;;;;;4985069;28;20197;-88
2021/12/23 00:54:57;;;;;;;12.23;10.43;;;1.30;99.90;;;;;;4987317;28;20192;-87
2021/12/23 00:57:27;;;;;;;11.77;10.57;;;1.50;99.90;;;;;;5002677;28;20200;-88
2021/12/23 00:59:55;;;;;;;13.63;10.90;;;1.20;99.90;;;;;;4990827;28;20597;-88
2021/12/23 01:02:26;;;;;;;11.13;9.43;;;1.30;99.90;;;;;;4992520;28;20708;-87
2021/12/23 01:04:51;;;;;;;14.50;10.60;;;1.10;99.90;;;;;;5013557;28;20184;-88
2021/12/23 01:07:23;;;;;;;15.83;11.07;;;1.30;99.90;;;;;;4986371;28;20219;-88
2021/12/23 01:09:49;;;;;;;12.60;10.68;;;1.20;99.90;;;;;;5009959;28;20181;-88
2021/12/23 01:12:18;;;;;;;10.73;9.73;;;1.10;99.90;;;;;;4991485;28;20311;-87
2021/12/23 01:19:50;;;;;;;14.20;11.50;;;1.90;99.90;;;;;;5001355;28;20219;-87
2021/12/23 01:22:20;;;;;;;10.30;9.30;;;1.10;99.90;;;;;;5009568;28;20188;-89
2021/12/23 01:24:46;;;;;;;12.30;10.13;;;1.40;99.90;;;;;;4993194;28;20242;-87
2021/12/23 01:27:15;;;;;;;10.25;8.70;;;1.10;99.90;;;;;;5009224;28;20207;-87
2021/12/23 01:29:44;;;;;;;12.38;9.95;;;1.70;99.90;;;;;;4992724;28;20272;-88
2021/12/23 01:32:10;;;;;;;17.67;11.35;;;;;;;;;;5000532;28;20279;-89
2021/12/23 01:34:36;;;;;;;13.13;10.35;;;1.30;99.90;;;;;;4990297;28;20181;-86
2021/12/23 01:37:04;;;;;;;15.80;12.55;;;1.20;99.90;;;;;;5005759;28;20203;-86
2021/12/23 01:39:34;;;;;;;14.02;11.13;;;1.40;99.90;;;;;;4991124;28;20188;-88
2021/12/23 01:42:03;;;;;;;13.88;10.25;;;1.50;99.90;;;;;;4979786;28;20261;-88
2021/12/23 01:44:31;;;;;;;13.52;10.73;;;1.40;99.90;;;;;;4950609;28;20646;-87
2021/12/23 01:46:59;;;;;;;13.52;11.30;;;2.20;99.90;;;;;;4969805;28;20221;-87
2021/12/23 01:49:28;;;;;;;14.35;11.65;;;1.70;99.90;;;;;;4969810;28;20555;-88
2021/12/23 01:51:54;;;;;;;18.10;12.43;;;;;;;;;;4955339;28;20202;-87
2021/12/23 01:54:22;;;;;;;14.32;10.75;;;1.70;99.90;;;;;;4972300;28;20205;-89
2021/12/23 01:56:50;;;;;;;12.95;11.15;;;1.50;99.90;;;;;;4979238;28;20559;-89
2021/12/23 01:59:32;;;;;;;12.48;11.15;;;1.40;99.90;;;;;;4967233;28;20175;-88
2021/12/23 02:02:04;;;;;;;13.18;10.98;;;1.40;99.90;;;;;;4974611;28;20178;-88
2021/12/23 02:04:37;;;;;;;13.60;10.88;;;1.30;99.90;;;;;;4978254;28;20186;-88
2021/12/23 02:07:47;;;;;;;14.85;10.60;;;1.10;99.90;;;;;;4995924;28;20312;-88
2021/12/23 02:10:18;;;;;;;12.80;8.20;;;1.10;99.90;;;;;;4983216;28;20194;-88
2021/12/23 02:16:29;;;;;;;13.30;11.93;;;1.20;99.90;;;;;;4999468;28;20200;-88
2021/12/23 02:19:38;;;;;;;13.80;12.38;;;1.30;99.90;;;;;;4979605;28;20174;-88
2021/12/23 02:22:39;;;;;;;13.95;11.63;;;1.20;99.90;;;;;;4978771;28;20218;-89
2021/12/23 02:25:13;;;;;;;14.45;11.10;;;1.50;99.90;;;;;;4985271;28;20202;-90
2021/12/23 02:27:43;;;;;;;15.52;11.35;;;1.20;99.90;;;;;;4972464;28;20214;-88
2021/12/23 02:30:16;;;;;;;14.85;12.50;;;1.40;99.90;;;;;;4979145;28;20182;-88
2021/12/23 02:32:42;;;;;;;18.30;12.90;;;1.30;99.90;;;;;;4974561;28;20233;-88
2021/12/23 02:35:12;;;;;;;15.55;12.57;;;1.40;99.90;;;;;;4987621;28;20197;-87
2021/12/23 02:37:39;;;;;;;12.98;10.73;;;1.40;99.90;;;;;;4973024;28;20186;-88
2021/12/23 02:40:38;;;;;;;15.63;11.05;;;1.50;99.90;;;;;;4978931;28;20217;-88
2021/12/23 02:43:20;;;;;;;14.25;12.27;;;1.60;99.90;;;;;;5010440;28;20213;-89
2021/12/23 02:45:48;;;;;;;13.77;12.05;;;1.60;99.90;;;;;;5025822;28;20188;-88
2021/12/23 02:48:17;;;;;;;16.17;11.73;;;1.60;99.90;;;;;;5005909;28;20272;-88
2021/12/23 02:50:48;;;;;;;17.27;13.23;;;1.60;99.90;;;;;;4997450;28;20183;-87
2021/12/23 02:53:38;;;;;;;16.98;12.80;;;2.40;99.90;;;;;;5008650;28;20223;-88
2021/12/23 02:56:26;;;;;;;15.60;11.40;;;1.60;99.90;;;;;;4996563;28;20183;-88
2021/12/23 02:59:01;;;;;;;17.05;13.30;;;2.10;99.90;;;;;;5020479;28;20208;-85
2021/12/23 03:01:28;;;;;;;18.45;14.63;;;1.90;99.90;;;;;;4993048;28;20192;-88
2021/12/23 03:03:55;;;;;;;16.48;13.13;;;1.80;99.90;;;;;;5000622;28;20207;-89
2021/12/23 03:06:22;;;;;;;16.73;13.00;;;1.80;99.90;;;;;;4987782;28;20189;-88
2021/12/23 03:08:53;;;;;;;19.95;14.02;;;1.80;99.90;;;;;;5018774;28;20252;-89
2021/12/23 03:14:06;;;;;;;18.15;14.10;;;1.80;99.90;;;;;;3329020;26;20204;-90
2021/12/23 03:16:35;;;;;;;20.52;15.85;;;1.90;99.90;;;;;;5029661;28;20242;-89
2021/12/23 03:19:18;;;;;;;19.20;13.95;;;1.90;99.90;;;;;;5019734;28;20184;-85
2021/12/23 03:21:48;;;;;;;23.95;14.73;;;1.90;99.90;;;;;;5017338;28;20380;-90
2021/12/23 03:24:19;;;;;;;17.52;14.65;;;1.80;99.90;;;;;;5013439;28;20192;-89
2021/12/23 03:26:47;;;;;;;21.00;13.68;;;1.80;99.90;;;;;;5016478;28;20200;-89
2021/12/23 03:29:17;;;;;;;19.00;14.40;;;1.80;99.90;;;;;;5011456;28;20559;-88
2021/12/23 03:31:46;;;;;;;22.67;14.35;;;1.90;99.90;;;;;;5020733;28;20207;-87
2021/12/23 03:34:11;;;;;;;23.10;13.20;;;1.90;99.90;;;;;;5038679;28;20196;-89
2021/12/23 03:36:38;;;;;;;21.73;14.63;;;;;;;;;;5009330;28;20191;-89
2021/12/23 03:39:05;;;;;;;23.70;14.15;;;2.00;99.90;;;;;;5025265;28;20402;-88
2021/12/23 03:46:37;;;;;;;19.52;14.27;;;1.90;99.90;;;;;;5038283;28;20218;-81
2021/12/23 03:49:05;;;;;;;22.60;16.13;;;1.90;99.90;;;;;;5026986;28;20401;-81
2021/12/23 03:51:31;;;;;;;20.38;16.10;;;3.60;99.90;;;;;;5007383;28;20188;-81
2021/12/23 03:53:57;;;;;;;25.45;17.10;;;1.80;99.90;;;;;;5013990;28;20187;-81
2021/12/23 03:56:23;;;;;;;32.43;17.53;;;1.80;99.90;;;;;;5032022;28;20595;-82
2021/12/23 03:58:49;;;;;;;24.00;15.77;;;1.60;99.90;;;;;;5013934;28;20413;-82
2021/12/23 04:01:14;;;;;;;23.03;14.67;;;1.80;99.90;;;;;;5032361;28;20664;-82
2021/12/23 04:03:40;;;;;;;22.60;14.70;;;1.80;99.90;;;;;;5037600;28;20763;-82
2021/12/23 04:06:06;;;;;;;27.77;15.83;;;1.60;99.90;;;;;;5020973;28;20222;-82
2021/12/23 04:08:31;;;;;;;23.20;17.00;;;1.70;99.90;;;;;;5026086;28;20410;-83
2021/12/23 04:10:59;;;;;;;19.43;15.17;;;1.60;99.90;;;;;;5022533;28;20191;-82
2021/12/23 04:13:26;;;;;;;23.98;16.17;;;1.50;99.90;;;;;;5040404;28;20215;-82
2021/12/23 04:15:52;;;;;;;21.23;16.80;;;2.20;99.90;;;;;;5010491;28;20206;-82
2021/12/23 04:18:19;;;;;;;21.50;15.33;;;1.60;99.90;;;;;;5042579;28;20187;-82
2021/12/23 04:20:54;;;;;;;22.45;15.70;;;1.40;99.90;;;;;;5020964;28;20453;-81
2021/12/23 04:23:25;;;;;;;26.58;18.00;;;1.40;99.90;;;;;;5018649;28;20261;-81
2021/12/23 04:25:51;;;;;;;23.92;17.42;;;1.40;99.90;;;;;;5006899;28;20223;-81
2021/12/23 04:28:17;;;;;;;23.75;15.18;;;1.40;99.90;;;;;;5019532;28;20261;-83
2021/12/23 04:30:43;;;;;;;18.80;14.68;;;1.30;99.90;;;;;;4661982;28;10001324;-82
2021/12/23 04:33:09;;;;;;;25.20;16.17;;;1.50;99.90;;;;;;5004039;28;20305;-82
2021/12/23 04:35:35;;;;;;;26.35;16.63;;;2.10;99.90;;;;;;5010030;28;20419;-82
2021/12/23 04:38:00;;;;;;;28.60;18.10;;;1.40;99.90;;;;;;5028732;28;20720;-81
2021/12/23 04:40:26;;;;;;;31.00;19.57;;;1.40;99.90;;;;;;5032115;28;20196;-82
2021/12/23 04:42:52;;;;;;;20.97;14.40;;;1.20;99.90;;;;;;5030587;28;20214;-81
2021/12/23 04:45:17;;;;;;;24.60;16.60;;;1.20;99.90;;;;;;5032996;28;20231;-81
2021/12/23 04:47:44;;;;;;;24.30;15.93;;;1.30;99.90;;;;;;5011713;28;20276;-83
2021/12/23 04:50:13;;;;;;;24.95;18.17;;;1.20;99.90;;;;;;5022130;28;20274;-80
2021/12/23 04:52:40;;;;;;;22.88;14.90;;;1.50;99.90;;;;;;5012397;28;20199;-80
2021/12/23 04:55:06;;;;;;;25.58;16.20;;;2.90;99.90;;;;;;5027951;28;20176;-80
2021/12/23 04:57:32;;;;;;;25.88;17.55;;;1.00;99.90;;;;;;5004577;28;20196;-81
2021/12/23 04:59:58;;;;;;;23.60;16.70;;;0.90;99.90;;;;;;5026063;28;20206;-82
2021/12/23 05:02:24;;;;;;;24.37;17.57;;;1.00;99.90;;;;;;5009863;28;20306;-82
2021/12/23 05:04:51;;;;;;;25.10;17.27;;;0.90;99.90;;;;;;5030464;28;20187;-81
2021/12/23 05:07:18;;;;;;;25.55;19.15;;;1.00;99.90;;;;;;5032538;28;20286;-82
2021/12/23 05:09:44;;;;;;;23.40;16.13;;;1.20;99.90;;;;;;5012515;28;20183;-80
2021/12/23 05:12:10;;;;;;;24.15;17.60;;;1.20;99.90;;;;;;5015846;28;20563;-81
2021/12/23 05:14:36;;;;;;;28.13;18.23;;;1.50;99.90;;;;;;5030008;28;20242;-82
2021/12/23 05:17:01;;;;;;;26.80;17.47;;;1.10;99.90;;;;;;5034913;28;20552;-80
2021/12/23 05:19:27;;;;;;;23.80;16.73;;;1.30;99.90;;;;;;5041689;28;20663;-80
2021/12/23 05:21:53;;;;;;;23.00;16.37;;;1.20;99.90;;;;;;5043072;28;20270;-83
2021/12/23 05:24:19;;;;;;;27.40;17.70;;;1.00;99.90;;;;;;5015346;28;20184;-81
2021/12/23 05:26:47;;;;;;;27.17;18.17;;;1.30;99.90;;;;;;5020211;28;20207;-80
2021/12/23 05:29:14;;;;;;;24.38;17.13;;;1.30;99.90;;;;;;5019083;28;20179;-79
2021/12/23 05:31:40;;;;;;;27.15;17.27;;;1.30;99.90;;;;;;5019343;28;20195;-81
2021/12/23 05:34:06;;;;;;;24.13;16.43;;;1.10;99.90;;;;;;5008365;28;20279;-81
2021/12/23 05:36:32;;;;;;;23.67;16.27;;;1.60;99.90;;;;;;5009519;28;20463;-80
2021/12/23 05:38:58;;;;;;;24.60;15.43;;;3.10;99.90;;;;;;5042825;28;20477;-81
2021/12/23 05:41:26;;;;;;;18.93;13.50;;;1.20;99.90;;;;;;5018806;28;20823;-82
2021/12/23 05:43:53;;;;;;;17.45;12.80;;;1.80;99.90;;;;;;5018834;28;20195;-82
2021/12/23 05:46:19;;;;;;;22.88;16.15;;;1.60;99.90;;;;;;5036109;28;20222;-81
2021/12/23 05:48:45;;;;;;;23.80;18.23;;;1.60;99.90;;;;;;5036637;28;20576;-82
2021/12/23 05:51:11;;;;;;;28.50;15.00;;;1.30;99.90;;;;;;5035013;28;20198;-81
2021/12/23 05:53:37;;;;;;;21.27;13.20;;;1.50;99.90;;;;;;5022525;28;20404;-81
2021/12/23 05:56:03;;;;;;;29.07;16.50;;;1.50;99.90;;;;;;5021672;28;20212;-80
2021/12/23 05:58:28;;;;;;;19.35;14.65;;;2.00;99.90;;;;;;5024360;28;20210;-82
2021/12/23 06:00:54;;;;;;;15.87;12.17;;;1.50;99.90;;;;;;5047140;28;20889;-83
2021/12/23 06:03:20;;;;;;;24.30;16.17;;;1.50;99.90;;;;;;5025780;28;20723;-82
2021/12/23 06:05:45;;;;;;;23.20;16.60;;;1.60;99.90;;;;;;5035863;28;20270;-83
2021/12/23 06:08:11;;;;;;;25.33;16.07;;;1.50;99.90;;;;;;5011418;28;20213;-82
2021/12/23 06:10:36;;;;;;;24.80;16.93;;;1.60;99.90;;;;;;5028560;28;20191;-81
2021/12/23 06:13:02;;;;;;;23.80;16.70;;;1.60;99.90;;;;;;5040934;28;20245;-83
2021/12/23 06:15:28;;;;;;;26.87;17.70;;;1.60;99.90;;;;;;5031413;28;20195;-83
2021/12/23 06:17:54;;;;;;;32.20;17.00;;;1.70;99.90;;;;;;5046335;28;20270;-83
2021/12/23 06:20:19;;;;;;;21.50;15.20;;;1.80;99.90;;;;;;5022706;28;20261;-82
2021/12/23 06:22:46;;;;;;;23.47;16.13;;;1.70;99.90;;;;;;5037035;28;20198;-82
2021/12/23 06:25:13;;;;;;;25.75;19.05;;;1.90;99.90;;;;;;5038158;28;20190;-83
2021/12/23 06:27:42;;;;;;;27.83;19.70;;;1.70;99.90;;;;;;5021731;28;20269;-82
2021/12/23 06:30:21;;;;;;;26.00;16.55;;;2.00;99.90;;;;;;5009946;28;20285;-81
2021/12/23 06:32:52;;;;;;;22.33;18.10;;;1.90;99.90;;;;;;5039510;28;20254;-82
2021/12/23 06:35:20;;;;;;;29.83;17.88;;;1.40;99.90;;;;;;5024174;28;20532;-82
2021/12/23 06:37:46;;;;;;;22.85;15.45;;;1.90;99.90;;;;;;5032450;28;20214;-81
2021/12/23 06:40:13;;;;;;;24.52;17.67;;;1.90;99.90;;;;;;5020105;28;20671;-82
2021/12/23 06:42:39;;;;;;;26.67;17.40;;;2.30;99.90;;;;;;5015465;28;20247;-81
2021/12/23 06:45:06;;;;;;;26.88;17.40;;;2.10;99.90;;;;;;5012336;28;20216;-81
2021/12/23 06:47:36;;;;;;;24.95;17.20;;;2.10;99.90;;;;;;5008596;28;20231;-82
2021/12/23 06:50:03;;;;;;;27.02;17.50;;;2.30;99.90;;;;;;5010608;28;20219;-81
2021/12/23 06:52:29;;;;;;;24.70;16.30;;;2.20;99.90;;;;;;5024643;28;20234;-79
2021/12/23 06:54:56;;;;;;;25.45;17.75;;;2.10;99.90;;;;;;5007489;28;20654;-78
2021/12/23 06:57:24;;;;;;;25.20;16.98;;;1.70;99.90;;;;;;5017503;28;20184;-80
2021/12/23 06:59:49;;;;;;;30.23;19.35;;;2.00;99.90;;;;;;5008497;28;20226;-79
2021/12/23 07:02:15;;;;;;;25.03;16.97;;;1.90;99.90;;;;;;5015429;28;20719;-79
2021/12/23 07:04:42;;;;;;;28.20;17.40;;;1.70;99.90;;;;;;5016505;28;20188;-79
2021/12/23 07:07:10;;;;;;;29.73;19.67;;;2.00;99.90;;;;;;5015289;28;20622;-77
2021/12/23 07:09:45;;;;;;;23.10;15.88;;;2.40;99.90;;;;;;5015495;28;20211;-80
2021/12/23 07:12:12;;;;;;;26.07;17.90;;;1.90;99.90;;;;;;4661914;28;9999991;-79
2021/12/23 07:14:39;;;;;;;27.95;15.68;;;1.90;99.90;;;;;;5014850;28;20446;-80
2021/12/23 07:17:06;;;;;;;30.30;19.05;;;2.20;99.90;;;;;;5015612;28;20219;-82
2021/12/23 07:19:35;;;;;;;24.15;17.15;;;1.90;99.90;;;;;;5016918;28;20188;-81
2021/12/23 07:22:01;;;;;;;22.95;16.10;;;1.90;99.90;;;;;;5011145;28;20259;-80
2021/12/23 07:24:27;;;;;;;27.80;17.43;;;1.90;99.90;;;;;;5016504;28;20196;-81
2021/12/23 07:26:52;;;;;;;28.60;18.07;;;1.60;99.90;;;;;;5010644;28;21170;-80
2021/12/23 07:29:18;;;;;;;25.67;16.37;;;1.90;99.90;;;;;;5013491;28;20203;-81
2021/12/23 07:31:44;;;;;;;25.63;18.47;;;1.80;99.90;;;;;;5010651;28;20287;-81
2021/12/23 07:34:09;;;;;;;25.30;18.37;;;1.80;99.90;;;;;;5013829;28;21001;-81
2021/12/23 07:36:36;;;;;;;28.85;19.08;;;1.90;99.90;;;;;;5007972;28;20203;-79
2021/12/23 07:39:06;;;;;;;23.23;16.87;;;1.80;99.90;;;;;;5009836;28;20200;-81
2021/12/23 07:41:33;;;;;;;24.35;16.33;;;2.70;99.90;;;;;;5004126;28;20275;-79
2021/12/23 07:44:03;;;;;;;26.30;18.15;;;1.90;99.90;;;;;;5015806;28;20212;-80
2021/12/23 07:46:32;;;;;;;29.58;18.52;;;1.90;99.90;;;;;;5006812;28;20439;-80
2021/12/23 07:48:58;;;;;;;25.10;17.67;;;1.80;99.90;;;;;;5005808;28;20204;-81
2021/12/23 07:51:25;;;;;;;29.27;16.80;;;1.80;99.90;;;;;;5013496;28;20208;-82
2021/12/23 07:53:53;;;;;;;26.85;17.48;;;1.50;99.90;;;;;;5016628;28;20518;-80
2021/12/23 07:56:19;;;;;;;30.38;17.90;;;2.00;99.90;;;;;;5004392;28;20192;-81
2021/12/23 07:58:45;;;;;;;26.17;17.40;;;1.90;99.90;;;;;;5009074;28;20221;-79
2021/12/23 08:01:10;;;;;;;23.73;17.70;;;1.90;99.90;;;;;;5011829;28;20281;-80
2021/12/23 08:03:36;;;;;;;24.63;15.60;;;1.80;99.90;;;;;;5007444;28;20733;-79
2021/12/23 08:06:03;;;;;;;21.30;15.90;;;1.90;99.90;;;;;;5013857;28;20204;-79
2021/12/23 08:08:30;;;;;;;19.73;12.82;;;2.30;99.90;;;;;;5014427;28;20223;-79
2021/12/23 08:10:56;;;;;;;19.38;14.90;;;1.50;99.90;;;;;;5005927;28;20304;-79
2021/12/23 08:13:21;;;;;;;21.85;16.30;;;2.10;99.90;;;;;;5012511;28;20287;-79
2021/12/23 08:15:47;;;;;;;21.77;17.47;;;1.90;99.90;;;;;;5015737;28;20275;-79
2021/12/23 08:18:13;;;;;;;22.17;16.80;;;2.10;99.90;;;;;;5014471;28;20192;-80
2021/12/23 08:20:39;;;;;;;21.70;15.33;;;2.10;99.90;;;;;;5016525;28;20419;-79
2021/12/23 08:23:05;;;;;;;27.43;17.93;;;2.30;99.90;;;;;;5011293;28;20227;-80
2021/12/23 08:25:31;;;;;;;22.85;16.00;;;2.30;99.90;;;;;;5017679;28;20236;-78
2021/12/23 08:27:57;;;;;;;24.00;17.15;;;2.50;99.90;;;;;;5010651;28;20218;-78
2021/12/23 08:30:23;;;;;;;23.77;16.87;;;2.70;99.90;;;;;;5008295;28;20196;-80
2021/12/23 08:32:51;;;;;;;25.60;17.93;;;2.40;99.90;;;;;;5006851;28;20280;-79
2021/12/23 08:35:17;;;;;;;23.13;16.27;;;3.70;99.90;;;;;;5012175;28;20195;-79
2021/12/23 08:37:51;;;;;;;24.40;16.38;;;2.40;99.90;;;;;;5004772;28;20192;-79
2021/12/23 08:40:23;;;;;;;26.90;17.05;;;2.70;99.90;;;;;;5014635;28;20216;-79
2021/12/23 08:42:50;;;;;;;20.33;15.10;;;2.60;99.90;;;;;;5016245;28;20203;-82
2021/12/23 08:45:17;;;;;;;23.77;16.92;;;2.70;99.90;;;;;;5021097;28;20218;-79
2021/12/23 08:47:43;;;;;;;22.77;16.55;;;2.70;99.90;;;;;;5037923;28;20620;-80
2021/12/23 08:50:10;;;;;;;24.95;16.30;;;2.60;99.90;;;;;;5015122;28;20638;-80
2021/12/23 08:52:58;;;;;;;21.48;15.80;;;3.30;99.90;;;;;;5038315;28;20191;-80
2021/12/23 08:55:27;;;;;;;25.02;15.43;;;2.60;99.90;;;;;;5039065;28;20282;-79
2021/12/23 08:57:56;;;;;;;26.23;17.08;;;2.60;99.90;;;;;;5027995;28;20563;-80
2021/12/23 09:00:22;;;;;;;23.42;16.25;;;2.60;99.90;;;;;;5025001;28;20215;-78
2021/12/23 09:02:48;;;;;;;19.80;14.50;;;2.90;99.90;;;;;;5016320;28;20226;-78
2021/12/23 09:05:17;;;;;;;26.83;16.73;;;2.90;99.90;;;;;;5022959;28;20272;-80
2021/12/23 09:07:43;;;;;;;25.58;17.38;;;3.10;99.90;;;;;;5013362;28;20207;-79
2021/12/23 09:10:09;;;;;;;22.90;15.57;;;4.20;99.90;;;;;;5014382;28;20183;-77
2021/12/23 09:12:35;;;;;;;23.52;15.50;;;3.40;99.90;;;;;;5036625;28;20226;-79
2021/12/23 09:15:01;;;;;;;20.80;16.00;;;2.90;99.90;;;;;;5043510;28;20271;-79
2021/12/23 09:17:27;;;;;;;24.17;16.03;;;3.00;99.90;;;;;;5018929;28;20200;-78
2021/12/23 09:19:52;;;;;;;19.57;13.70;;;3.40;99.90;;;;;;5016123;28;20714;-81
2021/12/23 09:22:18;;;;;;;20.83;16.20;;;3.50;99.90;;;;;;5044206;28;20183;-78
2021/12/23 09:24:46;;;;;;;22.47;14.47;;;3.10;99.90;;;;;;5009208;28;20200;-78
2021/12/23 09:27:32;;;;;;;22.05;15.30;;;3.20;99.90;;;;;;5023992;28;20212;-78
2021/12/23 09:32:52;;;;;;;27.92;14.95;;;3.20;99.90;;;;;;5034898;28;20584;-80
2021/12/23 09:35:24;;;;;;;24.85;15.82;;;4.00;99.90;;;;;;5018954;28;20222;-79
2021/12/23 09:37:51;;;;;;;22.92;17.48;;;3.60;99.90;;;;;;5032839;28;20188;-79
2021/12/23 09:40:37;;;;;;;19.83;15.40;;;3.60;99.90;;;;;;5032363;28;20682;-78
2021/12/23 09:45:43;;;;;;;21.60;14.90;;;3.80;99.90;;;;;;5052490;28;20225;-81
2021/12/23 09:48:09;;;;;;;18.55;14.27;;;3.80;99.90;;;;;;5046234;28;20391;-80
2021/12/23 09:50:39;;;;;;;19.52;14.70;;;4.30;99.90;;;;;;5057732;28;20526;-78
2021/12/23 09:53:06;;;;;;;25.95;15.80;;;3.80;99.90;;;;;;5039711;28;20219;-81
2021/12/23 09:55:34;;;;;;;16.52;13.30;;;4.10;99.90;;;;;;5037748;28;20182;-82
2021/12/23 09:58:00;;;;;;;23.10;15.13;;;4.00;99.90;;;;;;5057393;28;20183;-82
2021/12/23 10:00:32;;;;;;;25.83;15.70;;;4.00;99.90;;;;;;5037941;28;20187;-82
2021/12/23 10:02:58;;;;;;;17.05;12.57;;;4.40;99.90;;;;;;5057218;28;20701;-78
2021/12/23 10:05:28;;;;;;;23.67;14.48;;;4.20;99.90;;;;;;5039518;28;20294;-82
2021/12/23 10:07:55;;;;;;;20.92;15.07;;;4.20;99.90;;;;;;5055659;28;20235;-80
2021/12/23 10:10:28;;;;;;;19.63;14.88;;;4.40;99.90;;;;;;5038804;28;20208;-81
2021/12/23 10:30:33;;;;;;;22.00;14.73;;;4.50;99.90;;;;;;5050248;28;20279;-80
2021/12/23 10:38:52;;;;;;;20.63;13.82;;;5.10;99.90;;;;;;5052372;28;20191;-81
2021/12/23 10:41:24;;;;;;;24.23;14.85;;;5.20;99.90;;;;;;5035108;28;20797;-82
2021/12/23 10:44:00;;;;;;;17.08;13.38;;;5.30;99.90;;;;;;5057413;28;20640;-84
2021/12/23 10:46:26;;;;;;;23.80;15.88;;;7.50;99.90;;;;;;5041227;28;20218;-81
2021/12/23 10:49:05;;;;;;;19.30;13.90;;;6.50;99.90;;;;;;5065892;28;20291;-80
2021/12/23 10:51:56;;;;;;;20.70;14.50;;;6.60;99.90;;;;;;5039266;28;20442;-79
2021/12/23 10:57:59;;;;;;;18.50;12.07;;;6.10;99.90;;;;;;5035967;28;20269;-79
2021/12/23 11:00:20;;;;;;;24.75;13.77;;;6.40;99.90;;;;;;5069260;28;20189;-80
2021/12/23 11:03:05;;;;;;;22.58;14.45;;;6.80;99.90;;;;;;5065927;28;20619;-81
2021/12/23 11:05:37;;;;;;;20.73;15.68;;;5.90;99.90;;;;;;5042785;28;20214;-81
2021/12/23 11:08:26;;;;;;;26.27;16.35;;;5.90;99.90;;;;;;5038412;28;20230;-78
2021/12/23 11:12:14;;;;;;;21.73;15.40;;;6.00;99.90;;;;;;5027729;28;20209;-81
2021/12/23 11:37:05;;;;;;;22.10;13.48;;;5.50;99.90;;;;;;5037237;28;20723;-81
2021/12/23 11:42:34;;;;;;;17.65;11.90;;;5.70;99.90;;;;;;5037136;28;20204;-80
2021/12/23 11:45:00;;;;;;;28.00;14.85;;;5.70;99.90;;;;;;5017952;28;20215;-83
2021/12/23 11:47:29;;;;;;;26.00;14.55;;;5.70;99.90;;;;;;5034634;28;20941;-80
2021/12/23 11:49:56;;;;;;;23.23;14.05;;;5.60;99.90;;;;;;5032246;28;20593;-82
2021/12/23 11:52:22;;;;;;;20.65;12.93;;;6.70;99.90;;;;;;5032599;28;20695;-82
2021/12/23 11:54:48;;;;;;;23.03;15.20;;;5.80;99.90;;;;;;5016244;28;20175;-82
2021/12/23 11:57:31;;;;;;;20.23;13.23;;;6.10;99.90;;;;;;5016502;28;20278;-82
2021/12/23 12:00:15;;;;;;;17.88;12.80;;;6.40;99.90;;;;;;5017980;28;20434;-79
2021/12/23 12:02:42;;;;;;;17.13;12.95;;;5.70;99.90;;;;;;5021486;28;20195;-78
2021/12/23 12:05:15;;;;;;;20.45;13.98;;;5.80;99.90;;;;;;5026864;28;20290;-82
2021/12/23 12:07:41;;;;;;;15.63;12.20;;;6.00;99.90;;;;;;5036213;28;20237;-81
2021/12/23 12:10:09;;;;;;;16.90;12.70;;;5.70;99.90;;;;;;5035431;28;20187;-80
2021/12/23 12:12:37;;;;;;;14.43;10.05;;;5.70;99.90;;;;;;5024363;28;20469;-81
2021/12/23 12:15:04;;;;;;;18.35;11.05;;;7.00;99.90;;;;;;5034619;28;20187;-81
2021/12/23 12:17:33;;;;;;;19.52;13.30;;;5.70;99.90;;;;;;5039176;28;20259;-82
2021/12/23 12:20:06;;;;;;;21.38;13.90;;;5.80;99.90;;;;;;5034835;28;20209;-81
2021/12/23 12:23:00;;;;;;;21.00;14.13;;;5.70;99.90;;;;;;5018795;28;20605;-82
2021/12/23 12:25:25;;;;;;;13.70;10.82;;;5.80;99.90;;;;;;5029813;28;20196;-84
2021/12/23 12:28:00;;;;;;;22.07;12.90;;;5.80;99.90;;;;;;5036856;28;20302;-82
2021/12/23 12:30:36;;;;;;;16.40;12.20;;;5.70;99.90;;;;;;5033951;28;20187;-79
2021/12/23 12:33:03;;;;;;;22.08;14.43;;;5.70;99.90;;;;;;5017215;28;20577;-81
2021/12/23 12:35:29;;;;;;;14.43;8.65;;;5.60;99.90;;;;;;5035105;28;20168;-80
2021/12/23 12:38:09;;;;;;;25.35;12.82;;;5.80;99.90;;;;;;5035350;28;20171;-80
2021/12/23 12:40:56;;;;;;;13.90;12.40;;;5.70;99.90;;;;;;5034875;28;20180;-81
2021/12/23 12:43:54;;;;;;;18.52;11.75;;;5.70;99.90;;;;;;5039254;28;20206;-82
2021/12/23 12:49:24;;;;;;;17.73;12.32;;;5.80;99.90;;;;;;5039253;28;20215;-84
2021/12/23 12:51:52;;;;;;;13.90;10.65;;;5.60;99.90;;;;;;5043370;28;20907;-79
2021/12/23 12:54:32;;;;;;;17.65;12.77;;;5.90;99.90;;;;;;5016383;28;20269;-78
2021/12/23 12:57:02;;;;;;;17.42;11.77;;;6.00;99.90;;;;;;5045973;28;20176;-82
2021/12/23 12:59:34;;;;;;;12.77;9.48;;;7.40;99.90;;;;;;5038191;28;20656;-81
2021/12/23 13:02:00;;;;;;;13.02;8.77;;;5.90;99.90;;;;;;5030150;28;20188;-81
2021/12/23 13:04:44;;;;;;;10.97;9.07;;;5.90;99.90;;;;;;5044034;28;20648;-84
2021/12/23 13:07:29;;;;;;;20.83;12.27;;;6.10;99.90;;;;;;5040031;28;21150;-78
2021/12/23 13:10:16;;;;;;;16.48;12.05;;;6.10;99.90;;;;;;5037440;28;20223;-81
2021/12/23 13:12:54;;;;;;;25.02;13.18;;;6.90;99.90;;;;;;5036066;28;20186;-81
2021/12/23 13:15:40;;;;;;;17.58;12.95;;;6.00;99.90;;;;;;5021331;28;20190;-82
2021/12/23 13:18:17;;;;;;;14.85;11.05;;;6.10;99.90;;;;;;5039255;28;20186;-82
2021/12/23 13:20:59;;;;;;;15.70;11.30;;;6.90;99.90;;;;;;5019885;28;20561;-78
2021/12/23 13:23:32;;;;;;;16.70;12.65;;;7.20;99.90;;;;;;5040555;28;20196;-79
2021/12/23 13:26:05;;;;;;;13.95;11.25;;;6.20;99.90;;;;;;5019145;28;20183;-81
2021/12/23 13:28:46;;;;;;;23.45;13.65;;;6.40;99.90;;;;;;5041501;28;20532;-83
2021/12/23 13:31:16;;;;;;;15.73;11.95;;;6.40;99.90;;;;;;5043654;28;20253;-80
2021/12/23 13:33:53;;;;;;;19.75;13.05;;;8.00;99.90;;;;;;5040486;28;20191;-80
2021/12/23 13:36:47;;;;;;;20.45;12.57;;;8.10;99.90;;;;;;5039805;28;20258;-83
2021/12/23 13:39:26;;;;;;;16.33;11.80;;;6.60;99.90;;;;;;5014443;28;20203;-80
2021/12/23 13:41:54;;;;;;;17.25;12.43;;;6.60;99.90;;;;;;5037670;28;20275;-83
2021/12/23 13:44:37;;;;;;;15.50;12.65;;;6.50;99.90;;;;;;5037103;28;20255;-82
2021/12/23 13:47:09;;;;;;;21.58;12.98;;;6.90;99.90;;;;;;5045053;28;20210;-81
2021/12/23 13:49:47;;;;;;;10.15;6.82;;;6.20;99.90;;;;;;5035487;28;20283;-82
2021/12/23 13:52:29;;;;;;;21.15;14.25;;;6.20;99.90;;;;;;5038557;28;20183;-81
2021/12/23 13:54:58;;;;;;;12.77;11.35;;;6.20;99.90;;;;;;5037984;28;20195;-82
2021/12/23 13:57:27;;;;;;;19.83;15.57;;;6.10;99.90;;;;;;5041595;28;20211;-80
2021/12/23 13:59:53;;;;;;;16.27;12.38;;;5.90;99.90;;;;;;5032094;28;20960;-81
2021/12/23 14:02:22;;;;;;;18.33;11.73;;;6.20;99.90;;;;;;4672294;28;10000401;-78
2021/12/23 14:04:57;;;;;;;20.67;14.35;;;6.10;99.90;;;;;;5036491;28;20422;-80
2021/12/23 14:07:27;;;;;;;21.10;13.10;;;6.30;99.90;;;;;;5036976;28;20221;-81
2021/12/23 14:09:58;;;;;;;20.98;13.90;;;6.40;99.90;;;;;;5020282;28;20191;-80
2021/12/23 14:12:41;;;;;;;21.80;13.52;;;6.10;99.90;;;;;;5024225;28;20198;-83
2021/12/23 14:15:08;;;;;;;16.45;13.38;;;6.80;99.90;;;;;;5049330;28;20190;-83
2021/12/23 14:17:41;;;;;;;22.45;14.73;;;6.10;99.90;;;;;;5017421;28;20832;-83